Time;durP1;ratioP1;P1;durP2;ratioP2;P2;SDS_P1;SDS_P2;PMS_P1;PMS_P2;Temp;Humidity;BMP_temperature;BMP_pressure;BME280_temperature;BME280_humidity;BME280_pressure;Samples;Min_cycle;Max_cycle;Signal;HPM_P1;HPM_P2
2021/08/26 00:00:26;;;;;;;10.33;5.90;;;14.20;99.90;;;;;;5015809;28;20302;-71
2021/08/26 00:05:46;;;;;;;8.77;5.50;;;14.20;99.90;;;;;;5023977;28;20249;-71
2021/08/26 00:08:14;;;;;;;8.87;5.17;;;14.30;99.90;;;;;;5027198;28;20222;-71
2021/08/26 00:10:41;;;;;;;7.43;5.43;;;14.30;99.90;;;;;;5029520;28;20214;-73
2021/08/26 00:13:09;;;;;;;8.00;5.17;;;14.30;99.90;;;;;;5015961;28;20678;-72
2021/08/26 00:15:36;;;;;;;7.83;5.23;;;14.30;99.90;;;;;;5031797;28;20659;-72
2021/08/26 00:18:04;;;;;;;7.80;5.80;;;14.40;99.90;;;;;;5033646;28;20202;-72
2021/08/26 00:20:32;;;;;;;8.20;5.20;;;14.30;99.90;;;;;;5018281;28;20215;-71
2021/08/26 00:23:00;;;;;;;9.83;5.50;;;14.40;99.90;;;;;;5024107;28;20211;-71
2021/08/26 00:25:27;;;;;;;8.97;5.73;;;14.40;99.90;;;;;;5031681;28;20218;-70
2021/08/26 00:27:54;;;;;;;9.40;5.67;;;14.40;99.90;;;;;;5014050;28;20585;-72
2021/08/26 00:30:21;;;;;;;6.87;4.87;;;14.40;99.90;;;;;;5021650;28;20211;-72
2021/08/26 00:32:48;;;;;;;7.63;5.33;;;14.40;99.90;;;;;;5021494;28;20242;-73
2021/08/26 00:35:15;;;;;;;10.53;5.27;;;14.40;99.90;;;;;;5032350;28;20451;-71
2021/08/26 00:37:41;;;;;;;11.63;5.57;;;14.40;99.90;;;;;;5024978;28;20233;-72
2021/08/26 00:40:10;;;;;;;5.97;5.03;;;14.40;99.90;;;;;;5012561;28;20235;-71
2021/08/26 00:42:38;;;;;;;8.23;5.23;;;14.40;99.90;;;;;;5019369;28;20557;-72
2021/08/26 00:45:05;;;;;;;11.77;5.37;;;14.30;99.90;;;;;;5032493;28;20214;-71
2021/08/26 00:47:33;;;;;;;10.70;5.80;;;14.40;99.90;;;;;;5022319;28;20226;-73
2021/08/26 00:50:00;;;;;;;8.67;5.73;;;14.30;99.90;;;;;;5017166;28;20694;-72
2021/08/26 00:52:27;;;;;;;8.10;5.27;;;14.30;99.90;;;;;;5032702;28;20202;-73
2021/08/26 00:54:54;;;;;;;10.13;6.33;;;14.30;99.90;;;;;;5028056;28;20210;-71
2021/08/26 00:57:22;;;;;;;8.47;5.30;;;14.30;99.90;;;;;;5027118;28;20213;-71
2021/08/26 00:59:49;;;;;;;9.47;5.73;;;14.30;99.90;;;;;;5021250;28;20218;-71
2021/08/26 01:02:28;;;;;;;6.27;5.03;;;14.30;99.90;;;;;;5019800;28;20207;-71
2021/08/26 01:05:03;;;;;;;8.30;5.90;;;14.30;99.90;;;;;;5029512;28;20213;-72
2021/08/26 01:07:34;;;;;;;9.50;5.67;;;14.30;99.90;;;;;;5024425;28;20432;-70
2021/08/26 01:10:05;;;;;;;8.80;5.73;;;14.30;99.90;;;;;;5019981;28;20234;-72
2021/08/26 01:12:34;;;;;;;9.50;5.70;;;14.30;99.90;;;;;;5031659;28;20210;-72
2021/08/26 01:15:02;;;;;;;8.70;6.13;;;14.30;99.90;;;;;;5029433;28;20206;-72
2021/08/26 01:17:30;;;;;;;9.33;6.07;;;14.30;99.90;;;;;;5016134;28;20218;-72
2021/08/26 01:19:58;;;;;;;8.97;5.50;;;14.30;99.90;;;;;;5033414;28;20578;-71
2021/08/26 01:22:26;;;;;;;8.53;5.63;;;14.30;99.90;;;;;;5029135;28;20210;-71
2021/08/26 01:24:56;;;;;;;8.17;5.37;;;14.30;99.90;;;;;;5024347;28;20213;-70
2021/08/26 01:27:26;;;;;;;9.43;5.77;;;14.30;99.90;;;;;;5036195;28;20213;-72
2021/08/26 01:29:53;;;;;;;8.50;5.40;;;14.30;99.90;;;;;;5027961;28;20230;-71
2021/08/26 01:32:21;;;;;;;11.00;5.87;;;14.30;99.90;;;;;;5027083;28;20215;-70
2021/08/26 01:34:49;;;;;;;10.90;5.60;;;14.30;99.90;;;;;;5017162;28;20207;-71
2021/08/26 01:37:18;;;;;;;11.93;5.70;;;14.20;99.90;;;;;;5026923;28;20226;-70
2021/08/26 01:39:46;;;;;;;10.47;5.60;;;14.20;99.90;;;;;;5017287;28;20696;-71
2021/08/26 01:42:13;;;;;;;10.53;5.70;;;14.30;99.90;;;;;;5026167;28;20273;-72
2021/08/26 01:44:42;;;;;;;9.73;5.53;;;14.30;99.90;;;;;;5020398;28;20207;-71
2021/08/26 01:47:10;;;;;;;7.30;5.60;;;14.20;99.90;;;;;;5033845;28;20210;-71
2021/08/26 01:49:37;;;;;;;11.10;6.17;;;14.30;99.90;;;;;;5027174;28;20254;-72
2021/08/26 01:52:06;;;;;;;9.37;5.43;;;14.30;99.90;;;;;;5028726;28;20585;-72
2021/08/26 01:54:32;;;;;;;10.23;5.70;;;14.30;99.90;;;;;;5018100;28;20303;-71
2021/08/26 01:56:59;;;;;;;6.30;4.70;;;14.20;99.90;;;;;;5019581;28;20212;-71
2021/08/26 01:59:26;;;;;;;8.07;5.30;;;14.20;99.90;;;;;;5016362;28;20719;-72
2021/08/26 02:01:54;;;;;;;11.63;6.27;;;14.20;99.90;;;;;;5025868;28;20203;-72
2021/08/26 02:04:21;;;;;;;8.83;5.53;;;14.20;99.90;;;;;;5016412;28;20238;-72
2021/08/26 02:06:48;;;;;;;8.10;5.10;;;14.20;99.90;;;;;;5015367;28;20610;-70
2021/08/26 02:09:14;;;;;;;8.10;5.37;;;14.20;99.90;;;;;;5021984;28;20233;-71
2021/08/26 02:11:41;;;;;;;8.23;5.60;;;14.20;99.90;;;;;;5038138;28;20203;-71
2021/08/26 02:14:08;;;;;;;7.40;5.60;;;14.20;99.90;;;;;;5021486;28;20655;-71
2021/08/26 02:16:35;;;;;;;9.77;5.40;;;14.20;99.90;;;;;;5042766;28;20210;-70
2021/08/26 02:19:03;;;;;;;8.60;5.13;;;14.20;99.90;;;;;;5018030;28;20199;-70
2021/08/26 02:21:30;;;;;;;7.93;5.20;;;14.20;99.90;;;;;;5030758;28;20203;-71
2021/08/26 02:23:57;;;;;;;9.10;5.57;;;14.20;99.90;;;;;;5034512;28;20418;-71
2021/08/26 02:26:24;;;;;;;7.37;5.27;;;14.20;99.90;;;;;;5025281;28;20203;-72
2021/08/26 02:28:51;;;;;;;11.30;5.47;;;14.20;99.90;;;;;;5015296;28;20227;-71
2021/08/26 02:31:18;;;;;;;10.63;6.27;;;14.20;99.90;;;;;;5029955;28;20285;-71
2021/08/26 02:33:44;;;;;;;10.60;5.30;;;14.20;99.90;;;;;;5035113;28;20221;-71
2021/08/26 02:36:12;;;;;;;10.57;5.90;;;14.20;99.90;;;;;;5029424;28;20231;-70
2021/08/26 02:38:39;;;;;;;7.73;5.33;;;14.20;99.90;;;;;;5023960;28;20207;-71
2021/08/26 02:41:06;;;;;;;10.33;5.47;;;14.20;99.90;;;;;;5027312;28;20249;-71
2021/08/26 02:43:33;;;;;;;9.90;6.00;;;14.20;99.90;;;;;;5035361;28;20539;-72
2021/08/26 02:46:00;;;;;;;8.70;5.43;;;14.20;99.90;;;;;;5034806;28;20238;-71
2021/08/26 02:48:27;;;;;;;10.07;5.53;;;14.20;99.90;;;;;;5028519;28;20207;-71
2021/08/26 02:50:53;;;;;;;8.60;5.40;;;14.20;99.90;;;;;;5025687;28;20211;-70
2021/08/26 02:53:21;;;;;;;8.77;5.93;;;14.20;99.90;;;;;;5020009;28;20214;-71
2021/08/26 02:55:48;;;;;;;8.67;5.13;;;14.20;99.90;;;;;;5022421;28;20211;-71
2021/08/26 02:58:15;;;;;;;7.70;5.20;;;14.10;99.90;;;;;;5015295;28;20215;-71
2021/08/26 03:00:42;;;;;;;9.10;5.17;;;14.10;99.90;;;;;;5018567;28;20203;-71
2021/08/26 03:03:09;;;;;;;9.47;5.47;;;14.10;99.90;;;;;;5016378;28;20219;-71
2021/08/26 03:05:35;;;;;;;8.63;5.40;;;14.10;99.90;;;;;;5028818;28;20222;-71
2021/08/26 03:08:02;;;;;;;9.67;5.77;;;14.10;99.90;;;;;;5016195;28;20558;-71
2021/08/26 03:10:31;;;;;;;9.97;5.67;;;14.10;99.90;;;;;;5027891;28;20693;-71
2021/08/26 03:12:58;;;;;;;8.50;5.23;;;14.10;99.90;;;;;;5019905;28;20242;-71
2021/08/26 03:15:25;;;;;;;7.70;5.83;;;14.10;99.90;;;;;;5031094;28;20214;-72
2021/08/26 03:17:52;;;;;;;7.80;5.67;;;14.10;99.90;;;;;;5021788;28;20214;-70
2021/08/26 03:20:20;;;;;;;8.67;5.77;;;14.10;99.90;;;;;;5034630;28;20198;-72
2021/08/26 03:22:48;;;;;;;10.47;5.17;;;14.10;99.90;;;;;;5020293;28;20202;-72
2021/08/26 03:25:15;;;;;;;7.83;5.50;;;14.10;99.90;;;;;;5034475;28;20234;-71
2021/08/26 03:27:43;;;;;;;9.90;6.27;;;14.10;99.90;;;;;;5031082;28;20203;-71
2021/08/26 03:30:11;;;;;;;8.43;6.20;;;14.10;99.90;;;;;;5018569;28;20231;-71
2021/08/26 03:32:37;;;;;;;8.47;5.67;;;14.10;99.90;;;;;;5020321;28;20543;-71
2021/08/26 03:35:07;;;;;;;9.70;6.00;;;14.10;99.90;;;;;;5034256;28;20313;-70
2021/08/26 03:37:34;;;;;;;9.67;5.80;;;14.00;99.90;;;;;;5028397;28;20817;-71
2021/08/26 03:40:01;;;;;;;8.80;5.30;;;14.00;99.90;;;;;;5028875;28;20246;-72
2021/08/26 03:42:28;;;;;;;14.07;6.30;;;14.00;99.90;;;;;;5020224;28;20211;-71
2021/08/26 03:44:56;;;;;;;8.10;5.67;;;14.00;99.90;;;;;;5019881;28;20686;-70
2021/08/26 03:47:22;;;;;;;11.13;5.73;;;14.00;99.90;;;;;;5021445;28;20211;-71
2021/08/26 03:49:49;;;;;;;9.40;5.73;;;14.00;99.90;;;;;;5017286;28;20325;-71
2021/08/26 03:52:16;;;;;;;8.67;5.70;;;14.00;99.90;;;;;;5033579;28;20210;-71
2021/08/26 03:54:43;;;;;;;9.27;6.00;;;13.90;99.90;;;;;;5027606;28;20206;-71
2021/08/26 03:57:10;;;;;;;8.70;5.57;;;14.00;99.90;;;;;;5028238;28;20218;-72
2021/08/26 03:59:36;;;;;;;9.93;6.27;;;14.00;99.90;;;;;;5030088;28;20215;-71
2021/08/26 04:02:05;;;;;;;8.10;5.57;;;13.90;99.90;;;;;;5020247;28;20215;-71
2021/08/26 04:04:32;;;;;;;9.83;5.87;;;14.00;99.90;;;;;;5027756;28;20585;-72
2021/08/26 04:06:58;;;;;;;9.77;6.00;;;13.90;99.90;;;;;;5027684;28;20214;-71
2021/08/26 04:09:25;;;;;;;11.03;5.80;;;13.90;99.90;;;;;;5013713;28;20230;-71
2021/08/26 04:11:52;;;;;;;11.33;6.07;;;14.00;99.90;;;;;;5013973;28;20219;-72
2021/08/26 04:14:19;;;;;;;11.07;6.40;;;13.90;99.90;;;;;;5016738;28;20214;-71
2021/08/26 04:16:45;;;;;;;9.73;6.03;;;13.90;99.90;;;;;;5033291;28;20654;-70
2021/08/26 04:19:13;;;;;;;11.17;6.57;;;13.90;99.90;;;;;;5019223;28;20551;-70
2021/08/26 04:21:40;;;;;;;8.13;5.73;;;14.00;99.90;;;;;;5026073;28;20282;-69
2021/08/26 04:24:07;;;;;;;8.80;6.13;;;14.00;99.90;;;;;;5030066;28;20214;-72
2021/08/26 04:26:34;;;;;;;10.00;6.77;;;13.90;99.90;;;;;;5033663;28;20217;-71
2021/08/26 04:29:01;;;;;;;8.80;5.70;;;14.00;99.90;;;;;;5032894;28;20216;-71
2021/08/26 04:31:27;;;;;;;8.93;6.50;;;13.90;99.90;;;;;;5033248;28;20214;-74
2021/08/26 04:33:54;;;;;;;10.87;6.67;;;14.00;99.90;;;;;;5033266;28;20209;-71
2021/08/26 04:36:22;;;;;;;9.03;6.10;;;14.00;99.90;;;;;;5032670;28;20218;-71
2021/08/26 04:38:49;;;;;;;9.07;6.00;;;14.00;99.90;;;;;;5013831;28;20570;-72
2021/08/26 04:41:16;;;;;;;9.90;6.43;;;14.00;99.90;;;;;;5031304;28;20234;-71
2021/08/26 04:43:42;;;;;;;9.90;6.60;;;14.00;99.90;;;;;;5032436;28;20223;-71
2021/08/26 04:46:09;;;;;;;11.33;6.83;;;13.90;99.90;;;;;;5030886;28;20206;-71
2021/08/26 04:48:36;;;;;;;10.17;6.33;;;14.00;99.90;;;;;;5027763;28;20578;-71
2021/08/26 04:51:03;;;;;;;9.50;6.30;;;14.00;99.90;;;;;;5032388;28;20229;-72
2021/08/26 04:53:31;;;;;;;11.13;6.53;;;13.90;99.90;;;;;;5032560;28;20206;-71
2021/08/26 04:55:58;;;;;;;9.20;6.27;;;13.90;99.90;;;;;;5029661;28;20214;-70
2021/08/26 04:58:25;;;;;;;11.30;6.47;;;13.90;99.90;;;;;;5031758;28;20210;-71
2021/08/26 05:00:51;;;;;;;9.87;6.80;;;14.00;99.90;;;;;;5021978;28;20222;-70
2021/08/26 05:03:18;;;;;;;9.90;6.60;;;13.90;99.90;;;;;;5019912;28;20210;-71
2021/08/26 05:05:45;;;;;;;10.57;6.90;;;14.00;99.90;;;;;;5030422;28;20213;-69
2021/08/26 05:08:12;;;;;;;9.23;6.73;;;14.00;99.90;;;;;;5029397;28;20213;-73
2021/08/26 05:10:40;;;;;;;9.63;6.70;;;14.00;99.90;;;;;;5014336;28;20603;-72
2021/08/26 05:13:08;;;;;;;9.77;6.77;;;14.00;99.90;;;;;;5012770;28;20211;-71
2021/08/26 05:15:37;;;;;;;9.80;6.10;;;14.00;99.90;;;;;;5025845;28;20207;-70
2021/08/26 05:18:04;;;;;;;8.90;6.53;;;14.00;99.90;;;;;;5023097;28;20215;-69
2021/08/26 05:20:31;;;;;;;11.50;6.47;;;14.00;99.90;;;;;;5038051;28;20245;-69
2021/08/26 05:22:58;;;;;;;11.03;6.40;;;14.00;99.90;;;;;;5012366;28;20215;-71
2021/08/26 05:25:25;;;;;;;10.23;6.90;;;14.00;99.90;;;;;;5016799;28;20215;-71
2021/08/26 05:27:53;;;;;;;12.93;7.23;;;14.00;99.90;;;;;;5022668;28;20215;-72
2021/08/26 05:30:20;;;;;;;12.63;7.13;;;14.00;99.90;;;;;;5023192;28;20234;-70
2021/08/26 05:32:46;;;;;;;10.63;6.50;;;14.10;99.90;;;;;;5017217;28;20219;-70
2021/08/26 05:35:13;;;;;;;9.27;6.20;;;14.10;99.90;;;;;;5031181;28;20303;-70
2021/08/26 05:37:40;;;;;;;10.13;6.77;;;14.10;99.90;;;;;;5026221;28;20223;-70
2021/08/26 05:40:08;;;;;;;9.13;6.60;;;14.10;99.90;;;;;;5011211;28;20239;-70
2021/08/26 05:42:35;;;;;;;7.97;5.90;;;14.10;99.90;;;;;;5019531;28;20203;-71
2021/08/26 05:45:03;;;;;;;14.90;6.67;;;14.10;99.90;;;;;;5030895;28;20559;-69
2021/08/26 05:47:30;;;;;;;12.70;6.70;;;14.10;99.90;;;;;;5024773;28;20202;-69
2021/08/26 05:49:57;;;;;;;11.03;6.50;;;14.20;99.90;;;;;;5029821;28;20230;-73
2021/08/26 05:52:23;;;;;;;7.90;5.80;;;14.20;99.90;;;;;;5028889;28;20210;-73
2021/08/26 05:54:50;;;;;;;8.90;5.97;;;14.20;99.90;;;;;;5032314;28;20210;-71
2021/08/26 05:57:17;;;;;;;11.60;6.13;;;14.20;99.90;;;;;;5026757;28;20211;-73
2021/08/26 05:59:44;;;;;;;8.00;5.73;;;14.20;99.90;;;;;;5032724;28;20210;-71
2021/08/26 06:02:12;;;;;;;7.33;5.67;;;14.10;99.90;;;;;;5029265;28;20669;-73
2021/08/26 06:04:38;;;;;;;8.80;5.77;;;14.20;99.90;;;;;;5029684;28;20216;-73
2021/08/26 06:07:05;;;;;;;7.40;5.53;;;14.20;99.90;;;;;;5032185;28;20210;-71
2021/08/26 06:09:32;;;;;;;9.93;6.10;;;14.20;99.90;;;;;;5034002;28;20213;-70
2021/08/26 06:11:59;;;;;;;13.07;6.77;;;14.20;99.90;;;;;;5034480;28;20207;-72
2021/08/26 06:14:25;;;;;;;7.50;5.43;;;14.20;99.90;;;;;;5033568;28;20692;-72
2021/08/26 06:16:52;;;;;;;8.10;5.70;;;14.20;99.90;;;;;;5034763;28;20211;-71
2021/08/26 06:19:20;;;;;;;8.33;5.33;;;14.20;99.90;;;;;;5031171;28;20568;-72
2021/08/26 06:21:47;;;;;;;6.87;5.00;;;14.30;99.90;;;;;;5032764;28;20210;-72
2021/08/26 06:24:14;;;;;;;9.20;5.80;;;14.30;99.90;;;;;;5030013;28;20698;-72
2021/08/26 06:26:41;;;;;;;10.70;6.60;;;14.30;99.90;;;;;;5034836;28;20655;-72
2021/08/26 06:29:07;;;;;;;8.97;6.00;;;14.40;99.90;;;;;;5033061;28;20211;-71
2021/08/26 06:31:34;;;;;;;8.40;5.80;;;14.40;99.90;;;;;;5019719;28;20246;-71
2021/08/26 06:34:01;;;;;;;9.80;5.67;;;14.40;99.90;;;;;;5033285;28;20214;-71
2021/08/26 06:36:30;;;;;;;7.33;5.47;;;14.50;99.90;;;;;;5027975;28;20230;-71
2021/08/26 06:38:58;;;;;;;7.50;5.63;;;14.50;99.90;;;;;;5033654;28;20564;-70
2021/08/26 06:41:25;;;;;;;8.27;6.10;;;14.50;99.90;;;;;;5033609;28;20656;-72
2021/08/26 06:43:51;;;;;;;6.57;5.47;;;14.50;99.90;;;;;;5033720;28;20214;-69
2021/08/26 06:46:18;;;;;;;7.53;4.80;;;14.50;99.90;;;;;;5035257;28;20582;-72
2021/08/26 06:48:45;;;;;;;6.13;4.77;;;14.60;99.90;;;;;;5034947;28;20285;-70
2021/08/26 06:51:12;;;;;;;7.70;4.53;;;14.60;99.90;;;;;;5035000;28;20226;-72
2021/08/26 06:53:40;;;;;;;7.00;5.10;;;14.60;99.90;;;;;;5029250;28;20935;-72
2021/08/26 06:56:06;;;;;;;5.73;4.80;;;14.70;99.90;;;;;;5024849;28;20239;-72
2021/08/26 06:58:33;;;;;;;8.57;5.20;;;14.70;99.90;;;;;;5033780;28;20202;-70
2021/08/26 07:01:00;;;;;;;6.57;5.27;;;14.80;99.90;;;;;;5033980;28;20217;-71
2021/08/26 07:03:27;;;;;;;6.97;4.83;;;14.80;99.90;;;;;;5034423;28;20210;-70
2021/08/26 07:05:54;;;;;;;7.00;5.10;;;14.80;99.90;;;;;;5029461;28;20211;-71
2021/08/26 07:08:21;;;;;;;7.67;5.40;;;14.80;99.90;;;;;;5032913;28;20693;-69
2021/08/26 07:10:49;;;;;;;7.93;5.10;;;14.80;99.90;;;;;;5033706;28;20223;-65
2021/08/26 07:13:16;;;;;;;8.87;4.80;;;14.90;99.90;;;;;;5032343;28;20210;-74
2021/08/26 07:15:43;;;;;;;7.20;4.97;;;14.90;99.90;;;;;;5033342;28;20214;-70
2021/08/26 07:18:11;;;;;;;6.23;5.00;;;14.90;99.90;;;;;;5033605;28;20214;-69
2021/08/26 07:20:38;;;;;;;6.63;5.00;;;14.90;99.90;;;;;;5033631;28;20206;-70
2021/08/26 07:23:05;;;;;;;7.37;4.67;;;14.90;99.90;;;;;;5030605;28;20213;-71
2021/08/26 07:25:31;;;;;;;5.67;4.57;;;15.00;99.90;;;;;;5032847;28;20212;-71
2021/08/26 07:28:00;;;;;;;7.53;5.17;;;15.00;99.90;;;;;;5020966;28;20219;-74
2021/08/26 07:30:27;;;;;;;7.17;4.90;;;15.20;99.90;;;;;;5033690;28;20800;-70
2021/08/26 07:32:54;;;;;;;6.80;4.23;;;15.30;99.90;;;;;;5032907;28;20272;-72
2021/08/26 07:35:21;;;;;;;7.37;5.17;;;15.50;99.90;;;;;;5035825;28;20214;-73
2021/08/26 07:37:48;;;;;;;5.73;4.60;;;15.50;99.90;;;;;;5035589;28;20230;-72
2021/08/26 07:40:15;;;;;;;5.93;4.70;;;15.60;99.90;;;;;;5033440;28;20238;-75
2021/08/26 07:42:42;;;;;;;6.83;5.13;;;15.70;99.90;;;;;;5035043;28;20198;-73
2021/08/26 07:45:11;;;;;;;9.43;5.53;;;15.80;99.90;;;;;;5033190;28;20210;-72
2021/08/26 07:47:38;;;;;;;12.17;5.83;;;15.90;99.90;;;;;;5032691;28;20214;-71
2021/08/26 07:50:06;;;;;;;7.80;5.20;;;16.10;99.90;;;;;;5032676;28;20214;-69
2021/08/26 07:52:33;;;;;;;5.37;4.80;;;16.20;99.90;;;;;;5034905;28;20730;-70
2021/08/26 07:55:02;;;;;;;7.03;4.50;;;16.20;99.90;;;;;;5035255;28;20617;-70
2021/08/26 07:57:29;;;;;;;5.70;4.30;;;16.20;99.90;;;;;;5027649;28;20298;-71
2021/08/26 07:59:55;;;;;;;6.63;4.03;;;16.20;99.90;;;;;;5037164;28;20217;-71
2021/08/26 08:02:24;;;;;;;4.80;4.30;;;16.20;99.90;;;;;;5032450;28;20285;-71
2021/08/26 08:04:50;;;;;;;7.23;4.53;;;16.20;99.90;;;;;;5032839;28;20285;-73
2021/08/26 08:07:17;;;;;;;5.93;3.90;;;16.20;99.90;;;;;;5033169;28;20206;-73
2021/08/26 08:09:44;;;;;;;5.93;4.60;;;16.20;99.90;;;;;;5032968;28;20237;-72
2021/08/26 08:12:11;;;;;;;9.20;4.50;;;16.20;99.90;;;;;;5031334;28;20234;-73
2021/08/26 08:14:38;;;;;;;7.33;4.40;;;16.20;99.90;;;;;;5033050;28;20612;-72
2021/08/26 08:17:05;;;;;;;4.97;3.97;;;16.20;99.90;;;;;;5033506;28;20221;-72
2021/08/26 08:19:33;;;;;;;6.80;4.40;;;16.20;99.90;;;;;;5022207;28;20638;-72
2021/08/26 08:22:00;;;;;;;6.17;4.23;;;16.30;99.90;;;;;;5025844;28;20209;-71
2021/08/26 08:24:27;;;;;;;5.97;4.20;;;16.30;99.90;;;;;;5032788;28;20320;-72
2021/08/26 08:26:54;;;;;;;4.37;3.97;;;16.40;99.90;;;;;;5032300;28;20573;-72
2021/08/26 08:29:21;;;;;;;4.47;4.07;;;16.40;99.90;;;;;;5032440;28;20207;-71
2021/08/26 08:31:48;;;;;;;5.43;3.87;;;16.50;99.90;;;;;;5029116;28;20687;-71
2021/08/26 08:34:14;;;;;;;7.43;4.87;;;16.60;99.90;;;;;;5033202;28;20290;-73
2021/08/26 08:36:43;;;;;;;6.30;4.20;;;16.70;99.90;;;;;;5032817;28;20590;-71
2021/08/26 08:39:09;;;;;;;6.30;4.57;;;16.70;99.90;;;;;;5032819;28;20214;-71
2021/08/26 08:41:37;;;;;;;5.70;4.60;;;16.60;99.90;;;;;;5032488;28;20729;-72
2021/08/26 08:44:04;;;;;;;4.93;4.30;;;16.70;99.90;;;;;;5032421;28;20210;-71
2021/08/26 08:46:33;;;;;;;5.73;3.90;;;16.70;99.90;;;;;;5031661;28;20207;-71
2021/08/26 08:49:01;;;;;;;4.63;3.83;;;16.70;99.90;;;;;;5031863;28;20218;-70
2021/08/26 08:51:31;;;;;;;7.80;4.53;;;16.70;99.90;;;;;;5030977;28;20591;-72
2021/08/26 08:53:59;;;;;;;5.47;4.53;;;16.70;99.90;;;;;;5013188;28;20207;-72
2021/08/26 08:56:27;;;;;;;4.93;4.37;;;16.70;99.90;;;;;;5012497;28;20235;-71
2021/08/26 08:58:57;;;;;;;5.33;4.37;;;16.80;99.90;;;;;;5011964;28;20211;-71
2021/08/26 09:01:24;;;;;;;8.03;4.80;;;16.80;99.90;;;;;;5022809;28;20207;-70
2021/08/26 09:03:51;;;;;;;5.43;4.33;;;16.80;99.90;;;;;;5014008;28;20210;-69
2021/08/26 09:06:17;;;;;;;4.47;4.07;;;16.90;99.90;;;;;;5011200;28;20640;-69
2021/08/26 09:09:03;;;;;;;4.67;3.93;;;17.00;99.90;;;;;;5013003;28;20651;-69
2021/08/26 09:11:30;;;;;;;5.30;3.90;;;17.10;99.90;;;;;;5019885;28;20215;-70
2021/08/26 09:13:57;;;;;;;4.90;4.10;;;17.20;99.90;;;;;;5011843;28;20207;-70
2021/08/26 09:16:37;;;;;;;6.67;4.43;;;17.30;99.90;;;;;;5011715;28;20679;-72
2021/08/26 09:19:29;;;;;;;5.33;4.27;;;17.30;99.90;;;;;;5011634;28;20253;-72
2021/08/26 09:21:56;;;;;;;5.33;4.50;;;17.20;99.90;;;;;;5020556;28;20241;-72
2021/08/26 09:24:25;;;;;;;4.60;3.77;;;17.20;99.90;;;;;;5030370;28;20302;-71
2021/08/26 09:26:53;;;;;;;5.03;4.00;;;17.30;99.90;;;;;;5029475;28;20202;-71
2021/08/26 09:29:20;;;;;;;4.53;3.87;;;17.30;99.90;;;;;;5028692;28;20651;-72
2021/08/26 09:31:46;;;;;;;5.37;4.03;;;17.40;99.90;;;;;;5030296;28;20226;-72
2021/08/26 09:34:16;;;;;;;4.47;3.83;;;17.50;99.90;;;;;;5032618;28;20211;-70
2021/08/26 09:36:54;;;;;;;4.47;3.73;;;17.70;99.90;;;;;;5030669;28;20227;-71
2021/08/26 09:39:24;;;;;;;5.63;3.73;;;18.10;99.90;;;;;;5032389;28;20619;-73
2021/08/26 09:41:53;;;;;;;5.23;3.60;;;18.30;99.90;;;;;;5034896;28;20574;-73
2021/08/26 09:44:22;;;;;;;4.25;3.50;;;18.50;99.90;;;;;;5033865;28;20297;-70
2021/08/26 09:46:50;;;;;;;3.53;3.22;;;18.60;99.90;;;;;;5027126;28;20504;-69
2021/08/26 09:49:19;;;;;;;5.40;3.20;;;18.60;99.90;;;;;;5020191;28;20206;-69
2021/08/26 09:52:01;;;;;;;3.58;3.28;;;18.60;99.90;;;;;;5031918;28;20227;-70
2021/08/26 09:54:32;;;;;;;4.63;3.72;;;18.50;99.90;;;;;;5031871;28;20224;-70
2021/08/26 09:57:00;;;;;;;4.00;3.27;;;18.40;99.90;;;;;;5033080;28;20210;-72
2021/08/26 09:59:45;;;;;;;3.70;3.17;;;18.30;99.90;;;;;;5027384;28;20226;-75
2021/08/26 10:02:13;;;;;;;4.63;3.40;;;18.10;99.90;;;;;;5032971;28;20216;-71
2021/08/26 10:04:40;;;;;;;5.55;3.70;;;18.20;99.90;;;;;;5028154;28;20207;-70
2021/08/26 10:07:07;;;;;;;4.20;3.80;;;18.20;99.90;;;;;;5034020;28;20199;-74
2021/08/26 10:09:37;;;;;;;4.70;3.87;;;18.10;99.90;;;;;;5033508;28;20206;-75
2021/08/26 10:12:06;;;;;;;4.30;2.93;;;18.10;99.90;;;;;;5034123;28;20227;-74
2021/08/26 10:14:33;;;;;;;4.37;3.13;;;18.20;99.90;;;;;;5033952;28;20206;-75
2021/08/26 10:17:00;;;;;;;4.28;3.38;;;18.30;99.90;;;;;;5032740;28;20211;-74
2021/08/26 10:19:28;;;;;;;6.85;3.78;;;18.40;99.90;;;;;;5032209;28;20527;-74
2021/08/26 10:21:54;;;;;;;4.97;3.13;;;18.60;99.90;;;;;;5034654;28;20278;-75
2021/08/26 10:24:22;;;;;;;5.07;3.03;;;18.90;99.90;;;;;;5035425;28;20207;-75
2021/08/26 10:26:55;;;;;;;3.05;2.58;;;19.10;99.90;;;;;;5033010;28;20210;-74
2021/08/26 10:29:23;;;;;;;2.55;2.33;;;19.30;99.90;;;;;;5034112;28;20199;-74
2021/08/26 10:31:55;;;;;;;6.50;2.45;;;19.80;99.90;;;;;;5030488;28;20219;-74
2021/08/26 10:34:24;;;;;;;4.05;2.85;;;20.10;99.90;;;;;;5034782;28;20217;-74
2021/08/26 10:37:19;;;;;;;2.85;2.58;;;20.40;99.90;;;;;;5027162;28;20223;-74
2021/08/26 10:39:47;;;;;;;3.15;2.60;;;20.40;99.90;;;;;;5032342;28;20230;-75
2021/08/26 10:42:45;;;;;;;2.50;2.30;;;20.10;99.90;;;;;;5032380;28;20559;-74
2021/08/26 10:45:20;;;;;;;3.47;2.22;;;20.00;99.90;;;;;;5032137;28;20257;-73
2021/08/26 10:48:15;;;;;;;3.15;2.45;;;20.10;99.90;;;;;;5034081;28;20206;-75
2021/08/26 10:50:45;;;;;;;2.53;2.25;;;20.10;99.90;;;;;;5034174;28;20507;-74
2021/08/26 10:53:16;;;;;;;2.92;2.60;;;20.00;99.90;;;;;;5026924;28;20655;-74
2021/08/26 10:55:45;;;;;;;2.72;2.50;;;19.90;99.90;;;;;;5019366;28;20203;-75
2021/08/26 10:58:43;;;;;;;2.90;2.70;;;19.90;99.90;;;;;;5026197;28;20570;-74
2021/08/26 11:01:12;;;;;;;4.82;2.10;;;19.80;99.90;;;;;;4996602;28;20203;-74
2021/08/26 11:03:53;;;;;;;2.72;2.28;;;19.60;99.90;;;;;;5021811;28;20211;-74
2021/08/26 11:06:41;;;;;;;3.17;2.65;;;19.40;99.90;;;;;;5031363;28;20211;-74
2021/08/26 11:09:34;;;;;;;3.13;2.70;;;19.20;99.90;;;;;;5029958;28;20199;-75
2021/08/26 11:12:26;;;;;;;2.85;2.58;;;19.10;99.90;;;;;;5032974;28;20219;-74
2021/08/26 11:15:00;;;;;;;3.58;3.15;;;18.90;99.90;;;;;;5028624;28;20209;-74
2021/08/26 11:17:34;;;;;;;2.70;2.50;;;19.00;99.90;;;;;;5024211;28;20244;-73
2021/08/26 11:20:31;;;;;;;3.05;2.75;;;19.00;99.90;;;;;;5018944;28;20644;-75
2021/08/26 11:23:09;;;;;;;3.00;2.65;;;19.10;99.90;;;;;;5023586;28;20209;-75
2021/08/26 11:25:36;;;;;;;3.17;2.80;;;19.20;99.90;;;;;;5023462;28;20215;-73
2021/08/26 11:28:31;;;;;;;3.10;2.80;;;19.20;99.90;;;;;;5024993;28;20207;-74
2021/08/26 11:31:22;;;;;;;3.50;2.60;;;19.50;99.90;;;;;;5023083;28;20207;-74
2021/08/26 11:33:50;;;;;;;2.97;2.30;;;19.70;99.90;;;;;;5020755;28;20568;-70
2021/08/26 11:36:17;;;;;;;4.18;2.90;;;19.80;99.90;;;;;;5023071;28;20241;-70
2021/08/26 11:38:52;;;;;;;2.42;2.22;;;19.90;99.90;;;;;;5018724;28;20226;-72
2021/08/26 11:41:19;;;;;;;3.38;2.75;;;20.10;99.90;;;;;;5021861;28;20617;-70
2021/08/26 11:43:46;;;;;;;3.53;3.15;;;20.20;99.90;;;;;;5029026;28;21082;-71
2021/08/26 11:46:16;;;;;;;3.38;2.50;;;20.30;99.90;;;;;;5031326;28;20214;-73
2021/08/26 11:48:56;;;;;;;3.55;2.72;;;20.40;99.90;;;;;;5028823;28;20202;-74
2021/08/26 11:51:33;;;;;;;4.00;2.72;;;20.50;99.90;;;;;;5016608;28;20241;-71
2021/08/26 11:54:18;;;;;;;3.75;2.80;;;20.60;99.90;;;;;;5022013;28;20203;-73
2021/08/26 11:56:50;;;;;;;3.95;2.78;;;20.60;99.90;;;;;;5036712;28;20217;-72
2021/08/26 11:59:28;;;;;;;3.03;2.80;;;20.70;99.90;;;;;;5026468;28;20208;-72
2021/08/26 12:02:17;;;;;;;2.25;2.03;;;20.80;99.90;;;;;;5031705;28;20199;-75
2021/08/26 12:04:45;;;;;;;3.60;2.60;;;20.70;99.90;;;;;;5031392;28;20218;-73
2021/08/26 12:07:20;;;;;;;3.88;2.40;;;20.60;99.90;;;;;;5032324;28;20258;-73
2021/08/26 12:09:47;;;;;;;3.00;2.53;;;20.50;99.90;;;;;;5031853;28;20217;-75
2021/08/26 12:12:14;;;;;;;2.97;2.55;;;20.40;99.90;;;;;;5032214;28;20239;-74
2021/08/26 12:14:42;;;;;;;3.20;2.60;;;20.30;99.90;;;;;;5044079;28;20202;-74
2021/08/26 12:17:14;;;;;;;5.93;2.65;;;20.20;99.90;;;;;;5032855;28;20210;-72
2021/08/26 12:19:42;;;;;;;2.70;2.17;;;20.10;99.90;;;;;;5033139;28;20668;-72
2021/08/26 12:22:10;;;;;;;3.33;2.70;;;20.10;99.90;;;;;;5031026;28;20203;-73
2021/08/26 12:24:48;;;;;;;2.85;2.17;;;20.20;99.90;;;;;;5025369;28;20259;-72
2021/08/26 12:27:15;;;;;;;2.92;2.30;;;20.30;99.90;;;;;;5029552;28;20202;-72
2021/08/26 12:29:43;;;;;;;2.58;2.08;;;20.40;99.90;;;;;;5032494;28;20207;-72
2021/08/26 12:32:28;;;;;;;3.13;2.10;;;20.40;99.90;;;;;;5032633;28;20222;-72
2021/08/26 12:35:19;;;;;;;4.88;2.35;;;20.40;99.90;;;;;;5033740;28;20198;-73
2021/08/26 12:37:55;;;;;;;3.00;2.28;;;20.30;99.90;;;;;;5031266;28;20234;-71
2021/08/26 12:40:22;;;;;;;2.33;2.13;;;20.30;99.90;;;;;;5029381;28;20230;-70
2021/08/26 12:43:06;;;;;;;4.03;1.92;;;20.30;99.90;;;;;;5029931;28;20210;-69
2021/08/26 12:45:35;;;;;;;2.60;2.08;;;20.20;99.90;;;;;;5029576;28;20289;-70
2021/08/26 12:48:28;;;;;;;3.03;2.08;;;20.10;99.90;;;;;;5031129;28;20203;-72
2021/08/26 12:51:16;;;;;;;1.95;1.80;;;20.00;99.90;;;;;;5024964;28;20218;-72
2021/08/26 12:53:46;;;;;;;3.42;2.47;;;19.90;99.90;;;;;;5029015;28;20218;-74
2021/08/26 12:56:16;;;;;;;2.83;2.30;;;19.90;99.90;;;;;;5020116;28;20207;-71
2021/08/26 12:59:02;;;;;;;2.90;2.60;;;19.90;99.90;;;;;;5027093;28;20660;-70